createdAt,value
2018-02-01T00:00:02.468Z,0.00
2018-02-01T00:01:02.500Z,0.00
2018-02-01T00:02:02.532Z,0.00
2018-02-01T00:03:02.568Z,0.00
2018-02-01T00:04:02.609Z,0.00
2018-02-01T00:05:02.627Z,0.00
2018-02-01T00:06:02.666Z,0.00
2018-02-01T00:07:02.689Z,0.00
2018-02-01T00:08:02.721Z,0.00
2018-02-01T00:09:02.753Z,0.00
2018-02-01T00:10:02.788Z,0.00
2018-02-01T00:11:02.820Z,0.00
2018-02-01T00:12:02.848Z,0.00
2018-02-01T00:13:02.890Z,0.00
2018-02-01T00:14:02.909Z,0.00
2018-02-01T00:15:02.939Z,0.00
2018-02-01T00:16:02.970Z,0.00
2018-02-01T00:17:03.065Z,0.00
2018-02-01T00:18:03.043Z,0.00
2018-02-01T00:19:03.072Z,0.00
2018-02-01T00:20:03.099Z,0.00
2018-02-01T00:21:03.126Z,0.00
2018-02-01T00:22:03.159Z,0.00
2018-02-01T00:23:03.190Z,0.00
2018-02-01T00:24:03.219Z,0.00
2018-02-01T00:25:03.277Z,0.00
2018-02-01T00:26:03.284Z,0.00
2018-02-01T00:27:03.315Z,0.00
2018-02-01T00:28:03.354Z,0.00
2018-02-01T00:29:03.394Z,0.00
2018-02-01T00:30:03.410Z,0.00
2018-02-01T00:31:03.440Z,0.00
2018-02-01T00:32:03.470Z,0.00
2018-02-01T00:33:03.501Z,0.00
2018-02-01T00:34:03.533Z,0.00
2018-02-01T00:35:03.566Z,0.00
2018-02-01T00:36:03.667Z,0.00
2018-02-01T00:37:03.626Z,0.00
2018-02-01T00:38:03.666Z,0.00
2018-02-01T00:39:03.694Z,0.00
2018-02-01T00:40:03.722Z,0.00
2018-02-01T00:41:03.750Z,0.00
2018-02-01T00:42:03.796Z,0.00
2018-02-01T00:43:03.811Z,0.00
2018-02-01T00:44:03.845Z,0.00
2018-02-01T00:45:03.872Z,0.00
2018-02-01T00:46:03.904Z,0.00
2018-02-01T00:47:03.935Z,0.00
2018-02-01T00:48:03.978Z,0.00
2018-02-01T00:49:03.997Z,0.00
2018-02-01T00:50:04.028Z,0.00
2018-02-01T00:51:04.063Z,0.00
2018-02-01T00:52:04.088Z,0.00
2018-02-01T00:53:04.175Z,0.00
2018-02-01T00:54:04.153Z,0.00
2018-02-01T00:55:04.184Z,0.00
2018-02-01T00:56:04.231Z,0.00
2018-02-01T00:57:04.243Z,0.00
2018-02-01T00:58:04.327Z,0.00
2018-02-01T00:59:04.304Z,0.00
2018-02-01T01:00:04.407Z,0.00
2018-02-01T01:01:04.363Z,0.00
2018-02-01T01:02:04.399Z,0.00
2018-02-01T01:03:04.443Z,0.00
2018-02-01T01:04:04.460Z,0.00
2018-02-01T01:05:04.489Z,0.00
2018-02-01T01:06:04.520Z,0.00
2018-02-01T01:07:04.550Z,0.00
2018-02-01T01:08:04.582Z,0.00
2018-02-01T01:09:04.615Z,0.00
2018-02-01T01:10:04.644Z,0.00
2018-02-01T01:11:04.675Z,0.00
2018-02-01T01:12:04.706Z,0.00
2018-02-01T01:13:04.734Z,0.00
2018-02-01T01:14:04.766Z,0.00
2018-02-01T01:15:04.796Z,0.00
2018-02-01T01:16:04.826Z,0.00
2018-02-01T01:17:05.059Z,0.00
2018-02-01T01:18:04.944Z,0.00
2018-02-01T01:19:04.921Z,0.00
2018-02-01T01:20:04.949Z,0.00
2018-02-01T01:21:04.984Z,0.00
2018-02-01T01:22:05.022Z,0.00
2018-02-01T01:23:05.044Z,0.00
2018-02-01T01:24:05.078Z,0.00
2018-02-01T01:25:05.103Z,0.00
2018-02-01T01:26:05.131Z,0.00
2018-02-01T01:27:05.169Z,0.00
2018-02-01T01:28:05.199Z,0.00
2018-02-01T01:29:05.227Z,0.00
2018-02-01T01:30:05.259Z,0.00
2018-02-01T01:31:05.295Z,0.00
2018-02-01T01:32:05.331Z,0.00
2018-02-01T01:33:05.348Z,0.00
2018-02-01T01:34:05.377Z,0.00
2018-02-01T01:35:05.407Z,0.00
2018-02-01T01:36:05.544Z,0.00
2018-02-01T01:37:05.470Z,0.00
2018-02-01T01:38:05.500Z,0.00
2018-02-01T01:39:05.531Z,0.00
2018-02-01T01:40:05.561Z,0.00
2018-02-01T01:41:05.605Z,0.00
2018-02-01T01:42:05.624Z,0.00
2018-02-01T01:43:05.711Z,0.00
2018-02-01T01:44:05.693Z,0.00
2018-02-01T01:45:05.715Z,0.00
2018-02-01T01:46:05.750Z,0.00
2018-02-01T01:47:05.778Z,0.00
2018-02-01T01:48:05.808Z,0.00
2018-02-01T01:49:05.841Z,0.00
2018-02-01T01:50:05.878Z,0.00
2018-02-01T01:51:05.901Z,0.00
2018-02-01T01:52:05.931Z,0.00
2018-02-01T01:53:05.963Z,0.00
2018-02-01T01:54:05.992Z,0.00
2018-02-01T01:55:06.021Z,0.00
2018-02-01T01:56:06.050Z,0.00
2018-02-01T01:57:06.080Z,0.00
2018-02-01T01:58:06.113Z,0.00
2018-02-01T01:59:06.145Z,0.00
2018-02-01T02:00:06.245Z,0.00
2018-02-01T02:01:06.207Z,0.00
2018-02-01T02:02:06.234Z,0.00
2018-02-01T02:03:06.267Z,0.00
2018-02-01T02:04:06.310Z,0.00
2018-02-01T02:05:06.341Z,0.00
2018-02-01T02:06:06.356Z,0.00
2018-02-01T02:07:06.388Z,0.00
2018-02-01T02:08:06.416Z,0.00
2018-02-01T02:09:06.444Z,0.00
2018-02-01T02:10:06.478Z,0.00
2018-02-01T02:11:06.507Z,0.00
2018-02-01T02:12:06.537Z,0.00
2018-02-01T02:13:06.573Z,0.00
2018-02-01T02:14:06.598Z,0.00
2018-02-01T02:15:06.628Z,0.00
2018-02-01T02:16:06.659Z,0.00
2018-02-01T02:17:06.689Z,0.00
2018-02-01T02:18:06.718Z,0.00
2018-02-01T02:19:06.818Z,0.00
2018-02-01T02:20:06.783Z,0.00
2018-02-01T02:21:06.815Z,0.00
2018-02-01T02:22:06.897Z,0.00
2018-02-01T02:23:06.871Z,0.00
2018-02-01T02:24:06.899Z,0.00
2018-02-01T02:25:06.929Z,0.00
2018-02-01T02:26:06.964Z,0.00
2018-02-01T02:27:06.989Z,0.00
2018-02-01T02:28:07.019Z,0.00
2018-02-01T02:29:07.055Z,0.00
2018-02-01T02:30:07.080Z,0.00
2018-02-01T02:31:07.111Z,0.00
2018-02-01T02:32:07.147Z,0.00
2018-02-01T02:33:07.195Z,0.00
2018-02-01T02:34:07.201Z,0.00
2018-02-01T02:35:07.231Z,0.00
2018-02-01T02:36:07.467Z,0.00
2018-02-01T02:37:07.292Z,0.00
2018-02-01T02:38:07.339Z,0.00
2018-02-01T02:39:07.353Z,0.00
2018-02-01T02:40:07.386Z,0.00
2018-02-01T02:41:07.413Z,0.00
2018-02-01T02:42:07.443Z,0.00
2018-02-01T02:43:07.561Z,0.00
2018-02-01T02:44:07.504Z,0.00
2018-02-01T02:45:07.532Z,0.00
2018-02-01T02:46:07.563Z,0.00
2018-02-01T02:47:07.599Z,0.00
2018-02-01T02:48:07.624Z,0.00
2018-02-01T02:49:07.653Z,0.00
2018-02-01T02:50:07.701Z,0.00
2018-02-01T02:51:07.712Z,0.00
2018-02-01T02:52:07.742Z,0.00
2018-02-01T02:53:07.778Z,0.00
2018-02-01T02:54:07.802Z,0.00
2018-02-01T02:55:07.842Z,0.00
2018-02-01T02:56:07.866Z,0.00
2018-02-01T02:57:07.893Z,0.00
2018-02-01T02:58:07.929Z,0.00
2018-02-01T02:59:07.953Z,0.00
2018-02-01T03:00:08.052Z,0.00
2018-02-01T03:01:08.014Z,0.00
2018-02-01T03:02:08.044Z,0.00
2018-02-01T03:03:08.075Z,0.00
2018-02-01T03:04:08.102Z,0.00
2018-02-01T03:05:08.134Z,0.00
2018-02-01T03:06:08.165Z,0.00
2018-02-01T03:07:08.202Z,0.00
2018-02-01T03:08:08.224Z,0.00
2018-02-01T03:09:08.252Z,0.00
2018-02-01T03:10:08.291Z,0.00
2018-02-01T03:11:08.323Z,0.00
2018-02-01T03:12:08.362Z,0.00
2018-02-01T03:13:08.377Z,0.00
2018-02-01T03:14:08.407Z,0.00
2018-02-01T03:15:08.433Z,0.00
2018-02-01T03:16:08.463Z,0.00
2018-02-01T03:17:08.494Z,0.00
2018-02-01T03:18:08.523Z,0.00
2018-02-01T03:19:08.668Z,0.00
2018-02-01T03:20:08.583Z,0.00
2018-02-01T03:21:08.616Z,0.00
2018-02-01T03:22:08.645Z,0.00
2018-02-01T03:23:08.679Z,0.00
2018-02-01T03:24:08.702Z,0.00
2018-02-01T03:25:08.734Z,0.00
2018-02-01T03:26:08.762Z,0.00
2018-02-01T03:27:08.794Z,0.00
2018-02-01T03:28:08.826Z,0.00
2018-02-01T03:29:08.854Z,0.00
2018-02-01T03:30:08.883Z,0.00
2018-02-01T03:31:08.913Z,0.00
2018-02-01T03:32:08.943Z,0.00
2018-02-01T03:33:08.972Z,0.00
2018-02-01T03:34:09.003Z,0.00
2018-02-01T03:35:09.033Z,0.00
2018-02-01T03:36:09.097Z,0.00
2018-02-01T03:37:09.093Z,0.00
2018-02-01T03:38:09.122Z,0.00
2018-02-01T03:39:09.154Z,0.00
2018-02-01T03:40:09.178Z,0.00
2018-02-01T03:41:09.208Z,0.00
2018-02-01T03:42:09.247Z,0.00
2018-02-01T03:43:09.599Z,0.00
2018-02-01T03:44:09.309Z,0.00
2018-02-01T03:45:09.326Z,0.00
2018-02-01T03:46:09.358Z,0.00
2018-02-01T03:47:09.387Z,0.00
2018-02-01T03:48:09.417Z,0.00
2018-02-01T03:49:09.445Z,0.00
2018-02-01T03:50:09.475Z,0.00
2018-02-01T03:51:09.517Z,0.00
2018-02-01T03:52:09.537Z,0.00
2018-02-01T03:53:09.568Z,0.00
2018-02-01T03:54:09.596Z,0.00
2018-02-01T03:55:09.627Z,0.00
2018-02-01T03:56:09.670Z,0.00
2018-02-01T03:57:09.685Z,0.00
2018-02-01T03:58:09.717Z,0.00
2018-02-01T03:59:09.747Z,0.00
2018-02-01T04:00:09.772Z,0.00
2018-02-01T04:01:09.806Z,0.00
2018-02-01T04:02:09.843Z,0.00
2018-02-01T04:03:09.862Z,0.00
2018-02-01T04:04:09.888Z,0.00
2018-02-01T04:05:09.920Z,0.00
2018-02-01T04:06:09.949Z,0.00
2018-02-01T04:07:09.989Z,0.00
2018-02-01T04:08:10.007Z,0.00
2018-02-01T04:09:10.058Z,0.00
2018-02-01T04:10:10.069Z,0.00
2018-02-01T04:11:10.097Z,0.00
2018-02-01T04:12:10.191Z,0.00
2018-02-01T04:13:10.159Z,0.00
2018-02-01T04:14:10.187Z,0.00
2018-02-01T04:15:10.220Z,0.00
2018-02-01T04:16:10.246Z,0.00
2018-02-01T04:17:10.274Z,0.00
2018-02-01T04:18:10.304Z,0.00
2018-02-01T04:19:10.395Z,0.00
2018-02-01T04:20:10.378Z,0.00
2018-02-01T04:21:10.390Z,0.00
2018-02-01T04:22:10.419Z,0.00
2018-02-01T04:23:10.461Z,0.00
2018-02-01T04:24:10.481Z,0.00
2018-02-01T04:25:10.508Z,0.00
2018-02-01T04:26:10.538Z,0.00
2018-02-01T04:27:10.569Z,0.00
2018-02-01T04:28:10.595Z,0.00
2018-02-01T04:29:10.946Z,0.00
2018-02-01T04:30:10.658Z,0.00
2018-02-01T04:31:10.685Z,0.00
2018-02-01T04:32:10.728Z,0.00
2018-02-01T04:33:10.744Z,0.00
2018-02-01T04:34:10.774Z,0.00
2018-02-01T04:35:10.815Z,0.00
2018-02-01T04:36:10.847Z,0.00
2018-02-01T04:37:10.864Z,0.00
2018-02-01T04:38:10.892Z,0.00
2018-02-01T04:39:10.921Z,0.00
2018-02-01T04:40:10.947Z,0.00
2018-02-01T04:41:10.977Z,0.00
2018-02-01T04:42:11.008Z,0.00
2018-02-01T04:43:11.036Z,0.00
2018-02-01T04:44:11.070Z,0.00
2018-02-01T04:45:11.097Z,0.00
2018-02-01T04:46:11.125Z,0.00
2018-02-01T04:47:11.153Z,0.00
2018-02-01T04:48:11.183Z,0.00
2018-02-01T04:49:11.230Z,0.00
2018-02-01T04:50:11.243Z,0.00
2018-02-01T04:51:11.274Z,0.00
2018-02-01T04:52:11.298Z,0.00
2018-02-01T04:53:11.342Z,0.00
2018-02-01T04:54:11.359Z,0.00
2018-02-01T04:55:11.472Z,0.00
2018-02-01T04:56:11.416Z,0.00
2018-02-01T04:57:11.460Z,0.00
2018-02-01T04:58:11.479Z,0.00
2018-02-01T04:59:11.507Z,0.00
2018-02-01T05:00:11.536Z,0.00
2018-02-01T05:01:11.564Z,0.00
2018-02-01T05:02:11.593Z,0.00
2018-02-01T05:03:11.623Z,0.00
2018-02-01T05:04:11.659Z,0.00
2018-02-01T05:05:11.684Z,0.00
2018-02-01T05:06:11.714Z,0.00
2018-02-01T05:07:11.744Z,0.00
2018-02-01T05:08:11.775Z,0.00
2018-02-01T05:09:11.814Z,0.00
2018-02-01T05:10:11.830Z,0.00
2018-02-01T05:11:11.860Z,0.00
2018-02-01T05:12:11.915Z,0.00
2018-02-01T05:13:11.920Z,0.00
2018-02-01T05:14:11.949Z,0.00
2018-02-01T05:15:11.979Z,0.00
2018-02-01T05:16:12.008Z,0.00
2018-02-01T05:17:12.039Z,0.00
2018-02-01T05:18:12.069Z,0.00
2018-02-01T05:19:12.419Z,0.00
2018-02-01T05:20:12.130Z,0.00
2018-02-01T05:21:12.159Z,0.00
2018-02-01T05:22:12.186Z,0.00
2018-02-01T05:23:12.218Z,0.00
2018-02-01T05:24:12.282Z,0.00
2018-02-01T05:25:12.278Z,0.00
2018-02-01T05:26:12.308Z,0.00
2018-02-01T05:27:12.333Z,0.00
2018-02-01T05:28:12.363Z,0.00
2018-02-01T05:29:12.647Z,0.00
2018-02-01T05:30:12.430Z,0.00
2018-02-01T05:31:12.453Z,0.00
2018-02-01T05:32:12.482Z,0.00
2018-02-01T05:33:12.511Z,0.00
2018-02-01T05:34:12.541Z,0.00
2018-02-01T05:35:12.570Z,0.00
2018-02-01T05:36:12.647Z,0.00
2018-02-01T05:37:12.632Z,0.00
2018-02-01T05:38:12.667Z,0.00
2018-02-01T05:39:12.689Z,0.00
2018-02-01T05:40:12.719Z,0.00
2018-02-01T05:41:12.748Z,0.00
2018-02-01T05:42:12.778Z,0.00
2018-02-01T05:43:12.809Z,0.00
2018-02-01T05:44:12.836Z,0.00
2018-02-01T05:45:12.865Z,0.00
2018-02-01T05:46:12.958Z,0.00
2018-02-01T05:47:12.926Z,0.00
2018-02-01T05:48:13.065Z,0.00
2018-02-01T05:49:12.983Z,0.00
2018-02-01T05:50:13.013Z,0.00
2018-02-01T05:51:13.045Z,0.00
2018-02-01T05:52:13.071Z,0.00
2018-02-01T05:53:13.102Z,0.00
2018-02-01T05:54:13.134Z,0.00
2018-02-01T05:55:13.299Z,0.00
2018-02-01T05:56:13.192Z,0.00
2018-02-01T05:57:13.222Z,0.00
2018-02-01T05:58:13.251Z,0.00
2018-02-01T05:59:13.282Z,0.00
2018-02-01T06:00:13.311Z,0.00
2018-02-01T06:01:13.338Z,0.00
2018-02-01T06:02:13.373Z,0.00
2018-02-01T06:03:13.398Z,0.00
2018-02-01T06:04:13.428Z,0.00
2018-02-01T06:05:13.459Z,0.00
2018-02-01T06:06:13.488Z,0.00
2018-02-01T06:07:13.517Z,0.00
2018-02-01T06:08:13.545Z,0.00
2018-02-01T06:09:13.575Z,0.00
2018-02-01T06:10:13.607Z,0.00
2018-02-01T06:11:13.634Z,0.00
2018-02-01T06:12:13.732Z,0.00
2018-02-01T06:13:13.694Z,0.00
2018-02-01T06:14:13.728Z,0.00
2018-02-01T06:15:13.761Z,0.00
2018-02-01T06:16:13.784Z,0.00
2018-02-01T06:17:13.814Z,0.00
2018-02-01T06:18:13.844Z,0.00
2018-02-01T06:19:13.874Z,0.00
2018-02-01T06:20:13.903Z,0.00
2018-02-01T06:21:13.956Z,0.00
2018-02-01T06:22:13.964Z,0.00
2018-02-01T06:23:13.994Z,0.00
2018-02-01T06:24:14.020Z,0.00
2018-02-01T06:25:14.050Z,0.00
2018-02-01T06:26:14.079Z,0.00
2018-02-01T06:27:14.110Z,4.00
2018-02-01T06:28:14.140Z,4.00
2018-02-01T06:29:14.221Z,4.00
2018-02-01T06:30:14.198Z,4.00
2018-02-01T06:31:14.230Z,4.00
2018-02-01T06:32:14.258Z,8.00
2018-02-01T06:33:14.287Z,4.00
2018-02-01T06:34:14.315Z,8.00
2018-02-01T06:35:14.359Z,8.00
2018-02-01T06:36:14.710Z,8.00
2018-02-01T06:37:14.407Z,12.00
2018-02-01T06:38:14.436Z,16.00
2018-02-01T06:39:14.461Z,20.00
2018-02-01T06:40:14.497Z,20.00
2018-02-01T06:41:14.523Z,24.00
2018-02-01T06:42:14.563Z,28.00
2018-02-01T06:43:14.584Z,32.00
2018-02-01T06:44:14.931Z,40.00
2018-02-01T06:45:14.638Z,40.00
2018-02-01T06:46:14.667Z,52.00
2018-02-01T06:47:14.700Z,56.00
2018-02-01T06:48:14.828Z,64.00
2018-02-01T06:49:14.789Z,76.00
2018-02-01T06:50:14.789Z,84.00
2018-02-01T06:51:14.813Z,96.00
2018-02-01T06:52:14.843Z,100.00
2018-02-01T06:53:14.873Z,112.00
2018-02-01T06:54:14.900Z,128.00
2018-02-01T06:55:14.931Z,132.00
2018-02-01T06:56:14.961Z,148.00
2018-02-01T06:57:14.989Z,164.00
2018-02-01T06:58:15.017Z,180.00
2018-02-01T06:59:15.048Z,184.00
2018-02-01T07:00:15.081Z,192.00
2018-02-01T07:01:15.115Z,200.00
2018-02-01T07:02:15.134Z,216.00
2018-02-01T07:03:15.165Z,220.00
2018-02-01T07:04:15.194Z,236.00
2018-02-01T07:05:15.294Z,264.00
2018-02-01T07:06:15.252Z,296.00
2018-02-01T07:07:15.283Z,324.00
2018-02-01T07:08:15.311Z,356.00
2018-02-01T07:09:15.340Z,400.00
2018-02-01T07:10:15.369Z,452.00
2018-02-01T07:11:15.406Z,472.00
2018-02-01T07:12:15.436Z,488.00
2018-02-01T07:13:15.460Z,512.00
2018-02-01T07:14:15.487Z,548.00
2018-02-01T07:15:15.528Z,584.00
2018-02-01T07:16:15.547Z,612.00
2018-02-01T07:17:15.576Z,640.00
2018-02-01T07:18:15.604Z,664.00
2018-02-01T07:19:15.689Z,692.00
2018-02-01T07:20:15.662Z,716.00
2018-02-01T07:21:15.690Z,744.00
2018-02-01T07:22:15.726Z,768.00
2018-02-01T07:23:15.751Z,804.00
2018-02-01T07:24:15.783Z,840.00
2018-02-01T07:25:15.824Z,892.00
2018-02-01T07:26:15.846Z,956.00
2018-02-01T07:27:15.876Z,1008.00
2018-02-01T07:28:15.902Z,1056.00
2018-02-01T07:29:16.259Z,1108.00
2018-02-01T07:30:15.965Z,1128.00
2018-02-01T07:31:16.042Z,1140.00
2018-02-01T07:32:16.016Z,1200.00
2018-02-01T07:33:16.046Z,1240.00
2018-02-01T07:34:16.073Z,1292.00
2018-02-01T07:35:16.105Z,1312.00
2018-02-01T07:36:16.133Z,1340.00
2018-02-01T07:37:16.172Z,1356.00
2018-02-01T07:38:16.194Z,1356.00
2018-02-01T07:39:16.224Z,1376.00
2018-02-01T07:40:16.250Z,1404.00
2018-02-01T07:41:16.345Z,1464.00
2018-02-01T07:42:16.307Z,1544.00
2018-02-01T07:43:16.337Z,1596.00
2018-02-01T07:44:16.364Z,1620.00
2018-02-01T07:45:16.395Z,1636.00
2018-02-01T07:46:16.424Z,1652.00
2018-02-01T07:47:16.454Z,1696.00
2018-02-01T07:48:16.570Z,1708.00
2018-02-01T07:49:16.514Z,1712.00
2018-02-01T07:50:16.542Z,1700.00
2018-02-01T07:51:16.570Z,1696.00
2018-02-01T07:52:16.597Z,1732.00
2018-02-01T07:53:16.686Z,1824.00
2018-02-01T07:54:16.658Z,1812.00
2018-02-01T07:55:16.688Z,1744.00
2018-02-01T07:56:16.715Z,1764.00
2018-02-01T07:57:16.747Z,1876.00
2018-02-01T07:58:16.776Z,1864.00
2018-02-01T07:59:16.806Z,1904.00
2018-02-01T08:00:16.831Z,1896.00
2018-02-01T08:01:16.861Z,1868.00
2018-02-01T08:02:16.898Z,1884.00
2018-02-01T08:03:16.919Z,1864.00
2018-02-01T08:04:16.950Z,1768.00
2018-02-01T08:05:17.142Z,1720.00
2018-02-01T08:06:17.007Z,1796.00
2018-02-01T08:07:17.057Z,1920.00
2018-02-01T08:08:17.066Z,2076.00
2018-02-01T08:09:17.098Z,2144.00
2018-02-01T08:10:17.137Z,1972.00
2018-02-01T08:11:17.178Z,1752.00
2018-02-01T08:12:17.185Z,1592.00
2018-02-01T08:13:17.212Z,1444.00
2018-02-01T08:14:17.256Z,1364.00
2018-02-01T08:15:17.270Z,1388.00
2018-02-01T08:16:17.301Z,1676.00
2018-02-01T08:17:17.330Z,1808.00
2018-02-01T08:18:17.357Z,1936.00
2018-02-01T08:19:17.388Z,2044.00
2018-02-01T08:20:17.421Z,1996.00
2018-02-01T08:21:17.448Z,2120.00
2018-02-01T08:22:17.482Z,2360.00
2018-02-01T08:23:17.511Z,2556.00
2018-02-01T08:24:17.596Z,2120.00
2018-02-01T08:25:17.569Z,2508.00
2018-02-01T08:26:17.603Z,2704.00
2018-02-01T08:27:17.625Z,3304.00
2018-02-01T08:28:17.656Z,3292.00
2018-02-01T08:29:17.686Z,2956.00
2018-02-01T08:30:17.728Z,3276.00
2018-02-01T08:31:17.743Z,3216.00
2018-02-01T08:32:17.773Z,3416.00
2018-02-01T08:33:17.801Z,3472.00
2018-02-01T08:34:17.832Z,3260.00
2018-02-01T08:35:17.883Z,2812.00
2018-02-01T08:36:17.892Z,3112.00
2018-02-01T08:37:17.935Z,2608.00
2018-02-01T08:38:17.954Z,2936.00
2018-02-01T08:39:17.985Z,3368.00
2018-02-01T08:40:18.012Z,3520.00
2018-02-01T08:41:18.120Z,3656.00
2018-02-01T08:42:18.072Z,3752.00
2018-02-01T08:43:18.103Z,3784.00
2018-02-01T08:44:18.143Z,3804.00
2018-02-01T08:45:18.161Z,3908.00
2018-02-01T08:46:18.198Z,4064.00
2018-02-01T08:47:18.222Z,4260.00
2018-02-01T08:48:18.276Z,4216.00
2018-02-01T08:49:18.286Z,4164.00
2018-02-01T08:50:18.320Z,4744.00
2018-02-01T08:51:18.343Z,5324.00
2018-02-01T08:52:18.371Z,5180.00
2018-02-01T08:53:18.403Z,4620.00
2018-02-01T08:54:18.432Z,4164.00
2018-02-01T08:55:18.462Z,3988.00
2018-02-01T08:56:18.492Z,4092.00
2018-02-01T08:57:18.527Z,3988.00
2018-02-01T08:58:18.602Z,3784.00
2018-02-01T08:59:18.584Z,3904.00
2018-02-01T09:00:18.612Z,3976.00
2018-02-01T09:01:18.642Z,3808.00
2018-02-01T09:02:18.676Z,3760.00
2018-02-01T09:03:18.711Z,3720.00
2018-02-01T09:04:18.734Z,3464.00
2018-02-01T09:05:18.864Z,3428.00
2018-02-01T09:06:18.797Z,3484.00
2018-02-01T09:07:18.824Z,3688.00
2018-02-01T09:08:18.854Z,3632.00
2018-02-01T09:09:18.885Z,3880.00
2018-02-01T09:10:18.918Z,3784.00
2018-02-01T09:11:18.946Z,3692.00
2018-02-01T09:12:18.975Z,3796.00
2018-02-01T09:13:19.006Z,3900.00
2018-02-01T09:14:19.035Z,4040.00
2018-02-01T09:15:19.078Z,4388.00
2018-02-01T09:16:19.095Z,4404.00
2018-02-01T09:17:19.126Z,4528.00
2018-02-01T09:18:19.155Z,5388.00
2018-02-01T09:19:19.186Z,5804.00
2018-02-01T09:20:19.215Z,6648.00
2018-02-01T09:21:19.249Z,6808.00
2018-02-01T09:22:19.277Z,7052.00
2018-02-01T09:23:19.309Z,7224.00
2018-02-01T09:24:19.477Z,7276.00
2018-02-01T09:25:19.370Z,6828.00
2018-02-01T09:26:19.398Z,5868.00
2018-02-01T09:27:19.429Z,5600.00
2018-02-01T09:28:19.459Z,6092.00
2018-02-01T09:29:19.491Z,6152.00
2018-02-01T09:30:19.530Z,5304.00
2018-02-01T09:31:19.553Z,5408.00
2018-02-01T09:32:19.583Z,5980.00
2018-02-01T09:33:19.613Z,6020.00
2018-02-01T09:34:19.648Z,5580.00
2018-02-01T09:35:19.677Z,5992.00
2018-02-01T09:36:19.706Z,5996.00
2018-02-01T09:37:19.737Z,5484.00
2018-02-01T09:38:19.768Z,5488.00
2018-02-01T09:39:19.798Z,5188.00
2018-02-01T09:41:19.910Z,4964.00
2018-02-01T09:42:20.097Z,4796.00
2018-02-01T09:43:19.922Z,5180.00
2018-02-01T09:44:19.951Z,5588.00
2018-02-01T09:45:19.986Z,5984.00
2018-02-01T09:46:20.014Z,5512.00
2018-02-01T09:47:20.044Z,4848.00
2018-02-01T09:48:20.393Z,5232.00
2018-02-01T09:49:20.124Z,5292.00
2018-02-01T09:50:20.139Z,5208.00
2018-02-01T09:51:20.170Z,5208.00
2018-02-01T09:52:20.199Z,5448.00
2018-02-01T09:53:20.231Z,6276.00
2018-02-01T09:54:20.262Z,6892.00
2018-02-01T09:55:20.412Z,7412.00
2018-02-01T09:56:20.322Z,7520.00
2018-02-01T09:57:20.351Z,6960.00
2018-02-01T09:58:20.395Z,5932.00
2018-02-01T09:59:20.416Z,5876.00
2018-02-01T10:00:20.447Z,6360.00
2018-02-01T10:01:20.481Z,6668.00
2018-02-01T10:02:20.511Z,6820.00
2018-02-01T10:03:20.542Z,7104.00
2018-02-01T10:04:20.572Z,7224.00
2018-02-01T10:05:20.604Z,7080.00
2018-02-01T10:06:20.636Z,7060.00
2018-02-01T10:07:20.668Z,6492.00
2018-02-01T10:08:20.701Z,5744.00
2018-02-01T10:09:20.728Z,5568.00
2018-02-01T10:10:20.762Z,5912.00
2018-02-01T10:11:20.791Z,6472.00
2018-02-01T10:12:20.832Z,7132.00
2018-02-01T10:13:20.855Z,7112.00
2018-02-01T10:14:20.885Z,6648.00
2018-02-01T10:15:20.917Z,5824.00
2018-02-01T10:16:20.947Z,5244.00
2018-02-01T10:17:20.982Z,4996.00
2018-02-01T10:18:21.012Z,4952.00
2018-02-01T10:19:21.043Z,4924.00
2018-02-01T10:20:21.073Z,5364.00
2018-02-01T10:21:21.102Z,5852.00
2018-02-01T10:22:21.135Z,5728.00
2018-02-01T10:23:21.169Z,5768.00
2018-02-01T10:24:21.222Z,6144.00
2018-02-01T10:25:21.231Z,6628.00
2018-02-01T10:26:21.265Z,6596.00
2018-02-01T10:27:21.294Z,6180.00
2018-02-01T10:28:21.323Z,5648.00
2018-02-01T10:29:21.356Z,5112.00
2018-02-01T10:30:21.389Z,4584.00
2018-02-01T10:31:21.504Z,4464.00
2018-02-01T10:32:21.454Z,5220.00
2018-02-01T10:33:21.541Z,6984.00
2018-02-01T10:34:21.515Z,7960.00
2018-02-01T10:35:21.545Z,7888.00
2018-02-01T10:36:21.578Z,7400.00
2018-02-01T10:37:21.607Z,7136.00
2018-02-01T10:38:21.640Z,7072.00
2018-02-01T10:39:21.675Z,7116.00
2018-02-01T10:40:21.713Z,7332.00
2018-02-01T10:41:21.738Z,7232.00
2018-02-01T10:42:21.765Z,6660.00
2018-02-01T10:43:21.803Z,6396.00
2018-02-01T10:44:21.831Z,6704.00
2018-02-01T10:45:21.859Z,7172.00
2018-02-01T10:46:21.898Z,8024.00
2018-02-01T10:47:21.927Z,8224.00
2018-02-01T10:48:22.030Z,8248.00
2018-02-01T10:49:22.003Z,8148.00
2018-02-01T10:50:22.023Z,7428.00
2018-02-01T10:51:22.056Z,6988.00
2018-02-01T10:52:22.086Z,7396.00
2018-02-01T10:53:22.115Z,7972.00
2018-02-01T10:54:22.148Z,8496.00
2018-02-01T10:55:22.276Z,8320.00
2018-02-01T10:56:22.210Z,7292.00
2018-02-01T10:57:22.243Z,6980.00
2018-02-01T10:58:22.326Z,7020.00
2018-02-01T10:59:22.308Z,6400.00
2018-02-01T11:00:22.338Z,5868.00
2018-02-01T11:01:22.370Z,5836.00
2018-02-01T11:02:22.402Z,6756.00
2018-02-01T11:03:22.439Z,7972.00
2018-02-01T11:04:22.468Z,8360.00
2018-02-01T11:05:22.512Z,8012.00
2018-02-01T11:06:22.531Z,8000.00
2018-02-01T11:07:22.668Z,8072.00
2018-02-01T11:08:22.595Z,8072.00
2018-02-01T11:09:22.637Z,8500.00
2018-02-01T11:10:22.658Z,8996.00
2018-02-01T11:11:22.693Z,9124.00
2018-02-01T11:12:22.722Z,8936.00
2018-02-01T11:13:22.754Z,8904.00
2018-02-01T11:14:22.809Z,9256.00
2018-02-01T11:15:22.821Z,9484.00
2018-02-01T11:16:22.857Z,9760.00
2018-02-01T11:17:22.885Z,10396.00
2018-02-01T11:18:22.921Z,10460.00
2018-02-01T11:19:22.950Z,9960.00
2018-02-01T11:20:22.981Z,9564.00
2018-02-01T11:21:23.073Z,9188.00
2018-02-01T11:22:23.046Z,8828.00
2018-02-01T11:23:23.083Z,8628.00
2018-02-01T11:25:23.144Z,9532.00
2018-02-01T11:26:23.181Z,10264.00
2018-02-01T11:27:23.211Z,10296.00
2018-02-01T11:28:23.257Z,10528.00
2018-02-01T11:29:23.298Z,10120.00
2018-02-01T11:30:23.307Z,9696.00
2018-02-01T11:31:23.349Z,10292.00
2018-02-01T11:32:23.376Z,11412.00
2018-02-01T11:33:23.405Z,10864.00
2018-02-01T11:34:23.438Z,9332.00
2018-02-01T11:35:23.472Z,8004.00
2018-02-01T11:36:23.505Z,6924.00
2018-02-01T11:37:23.538Z,6728.00
2018-02-01T11:38:23.622Z,7456.00
2018-02-01T11:39:23.615Z,7484.00
2018-02-01T11:40:23.635Z,6660.00
2018-02-01T11:41:23.987Z,5892.00
2018-02-01T11:42:23.702Z,5680.00
2018-02-01T11:43:23.736Z,5156.00
2018-02-01T11:44:23.769Z,4304.00
2018-02-01T11:45:23.867Z,4056.00
2018-02-01T11:46:23.834Z,4780.00
2018-02-01T11:47:23.866Z,6404.00
2018-02-01T11:48:23.913Z,7568.00
2018-02-01T11:49:23.933Z,7768.00
2018-02-01T11:50:23.966Z,7296.00
2018-02-01T11:51:23.998Z,6380.00
2018-02-01T11:52:24.031Z,5584.00
2018-02-01T11:53:24.066Z,4996.00
2018-02-01T11:54:24.097Z,4728.00
2018-02-01T11:55:24.281Z,4580.00
2018-02-01T11:56:24.162Z,4232.00
2018-02-01T11:57:24.195Z,3936.00
2018-02-01T11:58:24.233Z,3880.00
2018-02-01T11:59:24.257Z,4232.00
2018-02-01T12:00:24.296Z,4668.00
2018-02-01T12:01:24.349Z,4944.00
2018-02-01T12:02:24.356Z,5192.00
2018-02-01T12:03:24.396Z,5604.00
2018-02-01T12:04:24.797Z,7464.00
2018-02-01T12:05:24.506Z,9636.00
2018-02-01T12:06:24.487Z,9268.00
2018-02-01T12:07:24.516Z,8440.00
2018-02-01T12:09:24.578Z,8880.00
2018-02-01T12:10:24.612Z,9256.00
2018-02-01T12:11:24.647Z,9296.00
2018-02-01T12:12:24.702Z,9500.00
2018-02-01T12:13:24.740Z,9868.00
2018-02-01T12:14:24.741Z,10136.00
2018-02-01T12:15:24.777Z,8988.00
2018-02-01T12:16:24.813Z,7728.00
2018-02-01T12:17:24.838Z,6900.00
2018-02-01T12:18:24.870Z,6672.00
2018-02-01T12:19:24.907Z,6320.00
2018-02-01T12:20:24.938Z,6196.00
2018-02-01T12:21:25.009Z,5792.00
2018-02-01T12:22:25.001Z,5392.00
2018-02-01T12:23:25.038Z,5260.00
2018-02-01T12:24:25.069Z,5736.00
2018-02-01T12:25:25.099Z,6456.00
2018-02-01T12:26:25.453Z,7016.00
2018-02-01T12:27:25.162Z,6656.00
2018-02-01T12:28:25.308Z,5940.00
2018-02-01T12:29:25.229Z,5396.00
2018-02-01T12:30:25.258Z,5352.00
2018-02-01T12:31:25.292Z,5804.00
2018-02-01T12:32:25.325Z,5828.00
2018-02-01T12:33:25.354Z,5460.00
2018-02-01T12:34:25.390Z,5208.00
2018-02-01T12:35:25.424Z,5136.00
2018-02-01T12:36:25.469Z,4952.00
2018-02-01T12:37:25.496Z,4712.00
2018-02-01T12:38:25.520Z,4932.00
2018-02-01T12:39:25.551Z,5388.00
2018-02-01T12:40:25.583Z,5728.00
2018-02-01T12:41:25.616Z,6384.00
2018-02-01T12:42:25.650Z,7124.00
2018-02-01T12:43:25.680Z,8088.00
2018-02-01T12:44:25.716Z,8880.00
2018-02-01T12:45:25.748Z,9000.00
2018-02-01T12:46:25.773Z,8660.00